GCFDH EGBJ-EGBJ
Flight info
| Callsign | GCFDH |
|---|---|
| Flight time | 0h 10m |
| Altitude | 1500 |
| Route | DCT |
| Aircraft | C152/L-SCDE2/C |
Departure
| Time | 2026-04-21 19:27 |
|---|---|
| Airport | Gloucestershire Airport (EGBJ) |
Arrival
| Time | 2026-04-21 19:37 |
|---|---|
| Airport | Gloucestershire Airport (EGBJ) |
| Time | Latitude | Longitude | Altitude | Speed | Heading |
|---|---|---|---|---|---|
| 2026-04-21 19:19 | 51.89361 | -2.15945 | 89 ft | 0 kts | 233° |
| 2026-04-21 19:22 | 51.89360 | -2.15945 | 89 ft | 1 kts | 235° |
| 2026-04-21 19:22 | 51.89333 | -2.15967 | 88 ft | 9 kts | 200° |
| 2026-04-21 19:22 | 51.89261 | -2.16019 | 87 ft | 7 kts | 210° |
| 2026-04-21 19:22 | 51.89255 | -2.16108 | 86 ft | 11 kts | 230° |
| 2026-04-21 19:23 | 51.89190 | -2.16191 | 90 ft | 12 kts | 217° |
| 2026-04-21 19:23 | 51.89122 | -2.16261 | 89 ft | 11 kts | 211° |
| 2026-04-21 19:23 | 51.89072 | -2.16327 | 90 ft | 9 kts | 212° |
| 2026-04-21 19:23 | 51.89040 | -2.16392 | 93 ft | 8 kts | 251° |
| 2026-04-21 19:24 | 51.89025 | -2.16496 | 93 ft | 11 kts | 285° |
| 2026-04-21 19:24 | 51.89105 | -2.16529 | 93 ft | 13 kts | 341° |
| 2026-04-21 19:24 | 51.89208 | -2.16552 | 90 ft | 18 kts | 354° |
| 2026-04-21 19:24 | 51.89342 | -2.16570 | 82 ft | 20 kts | 0° |
| 2026-04-21 19:25 | 51.89424 | -2.16562 | 85 ft | 8 kts | 74° |
| 2026-04-21 19:25 | 51.89426 | -2.16509 | 84 ft | 0 kts | 92° |
| 2026-04-21 19:25 | 51.89426 | -2.16475 | 84 ft | 15 kts | 82° |
| 2026-04-21 19:26 | 51.89460 | -2.16034 | 86 ft | 59 kts | 82° |
| 2026-04-21 19:26 | 51.89503 | -2.15297 | 206 ft | 66 kts | 84° |
| 2026-04-21 19:26 | 51.89562 | -2.14557 | 337 ft | 68 kts | 79° |
| 2026-04-21 19:26 | 51.89630 | -2.13787 | 446 ft | 73 kts | 84° |
| 2026-04-21 19:27 | 51.89678 | -2.12989 | 581 ft | 71 kts | 86° |
| 2026-04-21 19:27 | 51.89870 | -2.12315 | 716 ft | 74 kts | 21° |
| 2026-04-21 19:27 | 51.90393 | -2.12390 | 862 ft | 74 kts | 1° |
| 2026-04-21 19:27 | 51.90899 | -2.12465 | 984 ft | 77 kts | 0° |
| 2026-04-21 19:28 | 51.91481 | -2.12551 | 1001 ft | 90 kts | 0° |
| 2026-04-21 19:28 | 51.92044 | -2.13013 | 1001 ft | 101 kts | 301° |
| 2026-04-21 19:28 | 51.92100 | -2.14156 | 1002 ft | 104 kts | 268° |
| 2026-04-21 19:28 | 51.92099 | -2.15340 | 1001 ft | 105 kts | 270° |
| 2026-04-21 19:29 | 51.92102 | -2.16529 | 999 ft | 106 kts | 270° |
| 2026-04-21 19:29 | 51.92104 | -2.17716 | 998 ft | 106 kts | 270° |
| 2026-04-21 19:29 | 51.92090 | -2.18908 | 998 ft | 106 kts | 258° |
| 2026-04-21 19:29 | 51.91621 | -2.19691 | 989 ft | 99 kts | 185° |
| 2026-04-21 19:30 | 51.90939 | -2.19761 | 983 ft | 98 kts | 180° |
| 2026-04-21 19:30 | 51.90253 | -2.19855 | 972 ft | 98 kts | 180° |
| 2026-04-21 19:30 | 51.89561 | -2.19944 | 938 ft | 99 kts | 176° |
| 2026-04-21 19:30 | 51.89107 | -2.19426 | 740 ft | 81 kts | 95° |
| 2026-04-21 19:31 | 51.89284 | -2.18503 | 293 ft | 89 kts | 75° |
| 2026-04-21 19:31 | 51.89347 | -2.17599 | 97 ft | 75 kts | 83° |
| 2026-04-21 19:31 | 51.89394 | -2.16904 | 80 ft | 52 kts | 84° |
| 2026-04-21 19:31 | 51.89431 | -2.16369 | 84 ft | 57 kts | 83° |
| 2026-04-21 19:32 | 51.89505 | -2.15588 | 176 ft | 78 kts | 85° |
| 2026-04-21 19:32 | 51.89505 | -2.14671 | 296 ft | 84 kts | 89° |
| 2026-04-21 19:32 | 51.89831 | -2.13969 | 425 ft | 89 kts | 11° |
| 2026-04-21 19:32 | 51.90455 | -2.14029 | 558 ft | 91 kts | 0° |
| 2026-04-21 19:33 | 51.90876 | -2.14065 | 643 ft | 92 kts | 0° |
| 2026-04-21 19:33 | 51.91737 | -2.14161 | 786 ft | 96 kts | 0° |
| 2026-04-21 19:33 | 51.92427 | -2.14238 | 794 ft | 102 kts | 0° |
| 2026-04-21 19:33 | 51.93096 | -2.14598 | 794 ft | 108 kts | 315° |
| 2026-04-21 19:34 | 51.93263 | -2.15756 | 795 ft | 111 kts | 267° |
| 2026-04-21 19:34 | 51.93252 | -2.17009 | 801 ft | 112 kts | 270° |
| 2026-04-21 19:34 | 51.93255 | -2.18270 | 801 ft | 112 kts | 270° |
| 2026-04-21 19:34 | 51.93146 | -2.19501 | 793 ft | 111 kts | 236° |
| 2026-04-21 19:35 | 51.92504 | -2.20008 | 790 ft | 105 kts | 178° |
| 2026-04-21 19:35 | 51.91045 | -2.20146 | 794 ft | 105 kts | 180° |
| 2026-04-21 19:35 | 51.90314 | -2.20232 | 796 ft | 105 kts | 180° |
| 2026-04-21 19:36 | 51.89582 | -2.20317 | 796 ft | 105 kts | 180° |
| 2026-04-21 19:36 | 51.88881 | -2.20271 | 787 ft | 94 kts | 149° |
| 2026-04-21 19:36 | 51.88808 | -2.19558 | 618 ft | 75 kts | 49° |
| 2026-04-21 19:36 | 51.89189 | -2.18985 | 406 ft | 68 kts | 59° |
| 2026-04-21 19:37 | 51.89308 | -2.18270 | 237 ft | 66 kts | 85° |
| 2026-04-21 19:37 | 51.89354 | -2.17540 | 93 ft | 61 kts | 83° |
| 2026-04-21 19:37 | 51.89397 | -2.16966 | 82 ft | 42 kts | 82° |
| 2026-04-21 19:37 | 51.89422 | -2.16573 | 85 ft | 26 kts | 85° |
| 2026-04-21 19:38 | 51.89444 | -2.16289 | 84 ft | 25 kts | 82° |
| 2026-04-21 19:38 | 51.89461 | -2.16046 | 85 ft | 15 kts | 90° |
| 2026-04-21 19:38 | 51.89448 | -2.15954 | 89 ft | 11 kts | 120° |
| 2026-04-21 19:38 | 51.89395 | -2.15828 | 93 ft | 10 kts | 145° |
| 2026-04-21 19:39 | 51.89353 | -2.15805 | 92 ft | 0 kts | 268° |
| 2026-04-21 19:39 | 51.89353 | -2.15806 | 92 ft | 0 kts | 261° |